sensor_id;sensor_type;location;lat;lon;timestamp;temperature;humidity
63013;DHT22;62113;45.624;11.700;2023-08-20T00:02:01;30.20;56.60
63013;DHT22;62113;45.624;11.700;2023-08-20T00:04:27;30.20;56.80
63013;DHT22;62113;45.624;11.700;2023-08-20T00:06:53;30.20;57.00
63013;DHT22;62113;45.624;11.700;2023-08-20T00:09:19;30.20;57.10
63013;DHT22;62113;45.624;11.700;2023-08-20T00:11:44;30.10;57.30
63013;DHT22;62113;45.624;11.700;2023-08-20T00:14:16;30.20;57.60
63013;DHT22;62113;45.624;11.700;2023-08-20T00:16:42;30.10;57.60
63013;DHT22;62113;45.624;11.700;2023-08-20T00:19:08;30.00;57.30
63013;DHT22;62113;45.624;11.700;2023-08-20T00:21:34;30.00;57.50
63013;DHT22;62113;45.624;11.700;2023-08-20T00:24:00;30.00;57.50
63013;DHT22;62113;45.624;11.700;2023-08-20T00:26:26;30.00;57.60
63013;DHT22;62113;45.624;11.700;2023-08-20T00:28:51;30.00;58.10
63013;DHT22;62113;45.624;11.700;2023-08-20T00:31:17;29.90;58.10
63013;DHT22;62113;45.624;11.700;2023-08-20T00:33:42;29.90;58.00
63013;DHT22;62113;45.624;11.700;2023-08-20T00:36:08;29.90;58.00
63013;DHT22;62113;45.624;11.700;2023-08-20T00:38:34;29.90;58.10
63013;DHT22;62113;45.624;11.700;2023-08-20T00:40:59;29.90;57.90
63013;DHT22;62113;45.624;11.700;2023-08-20T00:43:25;29.90;58.20
63013;DHT22;62113;45.624;11.700;2023-08-20T00:45:50;29.90;58.20
63013;DHT22;62113;45.624;11.700;2023-08-20T00:48:16;29.80;58.10
63013;DHT22;62113;45.624;11.700;2023-08-20T00:50:41;29.80;58.00
63013;DHT22;62113;45.624;11.700;2023-08-20T00:53:08;29.80;58.40
63013;DHT22;62113;45.624;11.700;2023-08-20T00:55:35;29.80;57.80
63013;DHT22;62113;45.624;11.700;2023-08-20T00:58:01;29.90;57.90
63013;DHT22;62113;45.624;11.700;2023-08-20T01:00:26;29.80;57.90
63013;DHT22;62113;45.624;11.700;2023-08-20T01:02:52;29.80;57.80
63013;DHT22;62113;45.624;11.700;2023-08-20T01:05:17;29.80;57.80
63013;DHT22;62113;45.624;11.700;2023-08-20T01:12:46;29.80;58.00
63013;DHT22;62113;45.624;11.700;2023-08-20T01:15:13;29.70;58.60
63013;DHT22;62113;45.624;11.700;2023-08-20T01:17:42;29.70;58.50
63013;DHT22;62113;45.624;11.700;2023-08-20T01:20:10;29.70;58.10
63013;DHT22;62113;45.624;11.700;2023-08-20T01:30:39;29.70;58.30
63013;DHT22;62113;45.624;11.700;2023-08-20T01:33:05;29.60;58.70
63013;DHT22;62113;45.624;11.700;2023-08-20T01:35:32;29.60;58.40
63013;DHT22;62113;45.624;11.700;2023-08-20T01:37:57;29.60;58.40
63013;DHT22;62113;45.624;11.700;2023-08-20T01:40:23;29.50;58.80
63013;DHT22;62113;45.624;11.700;2023-08-20T01:42:48;29.40;59.60
63013;DHT22;62113;45.624;11.700;2023-08-20T01:45:14;29.30;59.30
63013;DHT22;62113;45.624;11.700;2023-08-20T01:47:39;29.20;59.30
63013;DHT22;62113;45.624;11.700;2023-08-20T01:50:05;29.10;60.00
63013;DHT22;62113;45.624;11.700;2023-08-20T01:52:31;29.00;59.80
63013;DHT22;62113;45.624;11.700;2023-08-20T01:54:57;28.90;61.40
63013;DHT22;62113;45.624;11.700;2023-08-20T01:57:23;28.70;60.80
63013;DHT22;62113;45.624;11.700;2023-08-20T01:59:48;28.70;61.20
63013;DHT22;62113;45.624;11.700;2023-08-20T02:02:14;28.70;60.70
63013;DHT22;62113;45.624;11.700;2023-08-20T02:04:39;28.70;61.40
63013;DHT22;62113;45.624;11.700;2023-08-20T02:07:05;28.70;60.60
63013;DHT22;62113;45.624;11.700;2023-08-20T02:09:30;28.70;60.60
63013;DHT22;62113;45.624;11.700;2023-08-20T02:11:56;28.70;60.50
63013;DHT22;62113;45.624;11.700;2023-08-20T02:14:21;28.80;60.50
63013;DHT22;62113;45.624;11.700;2023-08-20T02:16:47;28.70;61.90
63013;DHT22;62113;45.624;11.700;2023-08-20T02:19:12;28.60;61.20
63013;DHT22;62113;45.624;11.700;2023-08-20T02:21:39;28.60;60.80
63013;DHT22;62113;45.624;11.700;2023-08-20T02:24:05;28.60;60.60
63013;DHT22;62113;45.624;11.700;2023-08-20T02:26:31;28.70;60.70
63013;DHT22;62113;45.624;11.700;2023-08-20T02:28:56;28.70;60.50
63013;DHT22;62113;45.624;11.700;2023-08-20T02:31:22;28.70;60.60
63013;DHT22;62113;45.624;11.700;2023-08-20T02:33:47;28.70;60.50
63013;DHT22;62113;45.624;11.700;2023-08-20T02:36:13;28.70;60.50
63013;DHT22;62113;45.624;11.700;2023-08-20T02:38:38;28.70;60.40
63013;DHT22;62113;45.624;11.700;2023-08-20T02:41:04;28.70;60.40
63013;DHT22;62113;45.624;11.700;2023-08-20T02:43:29;28.70;60.30
63013;DHT22;62113;45.624;11.700;2023-08-20T02:45:55;28.70;60.20
63013;DHT22;62113;45.624;11.700;2023-08-20T02:48:20;28.70;60.10
63013;DHT22;62113;45.624;11.700;2023-08-20T02:50:46;28.70;60.10
63013;DHT22;62113;45.624;11.700;2023-08-20T02:53:12;28.70;60.20
63013;DHT22;62113;45.624;11.700;2023-08-20T02:55:37;28.70;60.30
63013;DHT22;62113;45.624;11.700;2023-08-20T02:58:03;28.70;60.10
63013;DHT22;62113;45.624;11.700;2023-08-20T03:00:33;28.70;60.10
63013;DHT22;62113;45.624;11.700;2023-08-20T03:02:58;28.70;60.10
63013;DHT22;62113;45.624;11.700;2023-08-20T03:05:24;28.70;60.10
63013;DHT22;62113;45.624;11.700;2023-08-20T03:07:49;28.70;59.80
63013;DHT22;62113;45.624;11.700;2023-08-20T03:10:15;28.70;60.00
63013;DHT22;62113;45.624;11.700;2023-08-20T03:12:40;28.70;59.90
63013;DHT22;62113;45.624;11.700;2023-08-20T03:15:06;28.70;60.00
63013;DHT22;62113;45.624;11.700;2023-08-20T03:17:32;28.70;60.20
63013;DHT22;62113;45.624;11.700;2023-08-20T03:19:58;28.70;60.10
63013;DHT22;62113;45.624;11.700;2023-08-20T03:22:24;28.70;60.60
63013;DHT22;62113;45.624;11.700;2023-08-20T03:24:50;28.70;60.30
63013;DHT22;62113;45.624;11.700;2023-08-20T03:27:16;28.60;60.20
63013;DHT22;62113;45.624;11.700;2023-08-20T03:29:41;28.60;60.20
63013;DHT22;62113;45.624;11.700;2023-08-20T03:32:07;28.60;60.00
63013;DHT22;62113;45.624;11.700;2023-08-20T03:34:32;28.60;60.10
63013;DHT22;62113;45.624;11.700;2023-08-20T03:36:58;28.60;60.10
63013;DHT22;62113;45.624;11.700;2023-08-20T03:39:24;28.60;60.20
63013;DHT22;62113;45.624;11.700;2023-08-20T03:41:50;28.60;60.30
63013;DHT22;62113;45.624;11.700;2023-08-20T03:44:15;28.60;60.30
63013;DHT22;62113;45.624;11.700;2023-08-20T03:46:41;28.50;60.20
63013;DHT22;62113;45.624;11.700;2023-08-20T03:49:06;28.50;60.50
63013;DHT22;62113;45.624;11.700;2023-08-20T03:51:32;28.50;60.40
63013;DHT22;62113;45.624;11.700;2023-08-20T03:53:57;28.50;60.20
63013;DHT22;62113;45.624;11.700;2023-08-20T03:56:22;28.50;60.60
63013;DHT22;62113;45.624;11.700;2023-08-20T03:58:48;28.50;60.20
63013;DHT22;62113;45.624;11.700;2023-08-20T04:01:13;28.50;60.80
63013;DHT22;62113;45.624;11.700;2023-08-20T04:03:39;28.40;60.30
63013;DHT22;62113;45.624;11.700;2023-08-20T04:06:04;28.40;60.20
63013;DHT22;62113;45.624;11.700;2023-08-20T04:08:30;28.50;60.20
63013;DHT22;62113;45.624;11.700;2023-08-20T04:10:55;28.40;60.30
63013;DHT22;62113;45.624;11.700;2023-08-20T04:13:21;28.40;60.40
63013;DHT22;62113;45.624;11.700;2023-08-20T04:15:46;28.40;60.40
63013;DHT22;62113;45.624;11.700;2023-08-20T04:18:12;28.40;60.50
63013;DHT22;62113;45.624;11.700;2023-08-20T04:20:37;28.40;60.60
63013;DHT22;62113;45.624;11.700;2023-08-20T04:23:03;28.30;60.70
63013;DHT22;62113;45.624;11.700;2023-08-20T04:25:29;28.30;60.60
63013;DHT22;62113;45.624;11.700;2023-08-20T04:27:54;28.40;60.70
63013;DHT22;62113;45.624;11.700;2023-08-20T04:30:20;28.30;60.90
63013;DHT22;62113;45.624;11.700;2023-08-20T04:32:45;28.30;61.00
63013;DHT22;62113;45.624;11.700;2023-08-20T04:35:11;28.30;60.80
63013;DHT22;62113;45.624;11.700;2023-08-20T04:37:36;28.40;60.60
63013;DHT22;62113;45.624;11.700;2023-08-20T04:40:02;28.40;60.70
63013;DHT22;62113;45.624;11.700;2023-08-20T04:42:30;28.40;60.80
63013;DHT22;62113;45.624;11.700;2023-08-20T04:44:55;28.40;60.90
63013;DHT22;62113;45.624;11.700;2023-08-20T04:47:21;28.40;60.70
63013;DHT22;62113;45.624;11.700;2023-08-20T04:49:47;28.50;60.70
63013;DHT22;62113;45.624;11.700;2023-08-20T04:52:12;28.50;60.50
63013;DHT22;62113;45.624;11.700;2023-08-20T04:54:37;28.50;60.40
63013;DHT22;62113;45.624;11.700;2023-08-20T04:57:03;28.50;60.50
63013;DHT22;62113;45.624;11.700;2023-08-20T04:59:28;28.60;60.50
63013;DHT22;62113;45.624;11.700;2023-08-20T05:01:54;28.60;60.50
63013;DHT22;62113;45.624;11.700;2023-08-20T05:04:20;28.60;60.30
63013;DHT22;62113;45.624;11.700;2023-08-20T05:06:45;28.70;60.30
63013;DHT22;62113;45.624;11.700;2023-08-20T05:09:10;28.70;60.40
63013;DHT22;62113;45.624;11.700;2023-08-20T05:11:36;28.70;60.80
63013;DHT22;62113;45.624;11.700;2023-08-20T05:14:03;28.70;60.60
63013;DHT22;62113;45.624;11.700;2023-08-20T05:16:28;28.80;60.10
63013;DHT22;62113;45.624;11.700;2023-08-20T05:18:54;28.80;60.10
63013;DHT22;62113;45.624;11.700;2023-08-20T05:21:19;28.90;60.30
63013;DHT22;62113;45.624;11.700;2023-08-20T05:23:45;29.00;60.20
63013;DHT22;62113;45.624;11.700;2023-08-20T05:26:10;29.10;59.90
63013;DHT22;62113;45.624;11.700;2023-08-20T05:28:36;29.20;59.70
63013;DHT22;62113;45.624;11.700;2023-08-20T05:31:01;29.20;59.70
63013;DHT22;62113;45.624;11.700;2023-08-20T05:33:27;29.30;59.60
63013;DHT22;62113;45.624;11.700;2023-08-20T05:35:52;29.40;59.80
63013;DHT22;62113;45.624;11.700;2023-08-20T05:38:18;29.50;59.70
63013;DHT22;62113;45.624;11.700;2023-08-20T05:40:43;29.60;59.20
63013;DHT22;62113;45.624;11.700;2023-08-20T05:43:09;29.70;59.20
63013;DHT22;62113;45.624;11.700;2023-08-20T05:45:35;29.70;58.90
63013;DHT22;62113;45.624;11.700;2023-08-20T05:48:00;29.80;58.70
63013;DHT22;62113;45.624;11.700;2023-08-20T05:50:26;29.90;59.00
63013;DHT22;62113;45.624;11.700;2023-08-20T05:52:52;30.00;58.60
63013;DHT22;62113;45.624;11.700;2023-08-20T05:55:17;30.20;58.80
63013;DHT22;62113;45.624;11.700;2023-08-20T05:57:43;30.70;58.90
63013;DHT22;62113;45.624;11.700;2023-08-20T06:00:09;31.70;58.20
63013;DHT22;62113;45.624;11.700;2023-08-20T06:02:35;32.80;56.30
63013;DHT22;62113;45.624;11.700;2023-08-20T06:05:01;34.10;54.70
63013;DHT22;62113;45.624;11.700;2023-08-20T06:07:27;35.30;52.00
63013;DHT22;62113;45.624;11.700;2023-08-20T06:09:53;36.60;49.50
63013;DHT22;62113;45.624;11.700;2023-08-20T06:12:18;37.70;47.70
63013;DHT22;62113;45.624;11.700;2023-08-20T06:14:44;38.70;45.10
63013;DHT22;62113;45.624;11.700;2023-08-20T06:17:09;39.70;43.60
63013;DHT22;62113;45.624;11.700;2023-08-20T06:19:35;40.60;40.30
63013;DHT22;62113;45.624;11.700;2023-08-20T06:22:01;41.30;40.30
63013;DHT22;62113;45.624;11.700;2023-08-20T06:24:26;42.10;39.00
63013;DHT22;62113;45.624;11.700;2023-08-20T06:26:52;42.70;37.70
63013;DHT22;62113;45.624;11.700;2023-08-20T06:29:17;43.30;36.50
63013;DHT22;62113;45.624;11.700;2023-08-20T06:31:43;43.90;34.70
63013;DHT22;62113;45.624;11.700;2023-08-20T06:34:09;44.50;34.90
63013;DHT22;62113;45.624;11.700;2023-08-20T06:36:35;45.10;31.50
63013;DHT22;62113;45.624;11.700;2023-08-20T06:39:00;45.60;33.30
63013;DHT22;62113;45.624;11.700;2023-08-20T06:41:26;46.10;30.40
63013;DHT22;62113;45.624;11.700;2023-08-20T06:43:51;46.60;31.10
63013;DHT22;62113;45.624;11.700;2023-08-20T06:46:17;47.00;31.00
63013;DHT22;62113;45.624;11.700;2023-08-20T06:48:42;47.40;29.80
63013;DHT22;62113;45.624;11.700;2023-08-20T06:51:11;47.80;29.30
63013;DHT22;62113;45.624;11.700;2023-08-20T06:53:37;48.30;27.20
63013;DHT22;62113;45.624;11.700;2023-08-20T06:56:02;48.70;26.80
63013;DHT22;62113;45.624;11.700;2023-08-20T06:58:28;49.10;26.90
63013;DHT22;62113;45.624;11.700;2023-08-20T07:00:53;49.40;27.60
63013;DHT22;62113;45.624;11.700;2023-08-20T07:03:19;49.80;25.70
63013;DHT22;62113;45.624;11.700;2023-08-20T07:05:44;50.20;26.30
63013;DHT22;62113;45.624;11.700;2023-08-20T07:08:10;50.60;25.40
63013;DHT22;62113;45.624;11.700;2023-08-20T07:10:35;50.90;24.40
63013;DHT22;62113;45.624;11.700;2023-08-20T07:13:01;51.20;25.90
63013;DHT22;62113;45.624;11.700;2023-08-20T07:15:26;51.60;23.60
63013;DHT22;62113;45.624;11.700;2023-08-20T07:17:52;52.00;24.00
63013;DHT22;62113;45.624;11.700;2023-08-20T07:20:17;52.30;22.20
63013;DHT22;62113;45.624;11.700;2023-08-20T07:22:43;52.60;22.70
63013;DHT22;62113;45.624;11.700;2023-08-20T07:25:08;53.00;21.50
63013;DHT22;62113;45.624;11.700;2023-08-20T07:27:34;53.30;21.00
63013;DHT22;62113;45.624;11.700;2023-08-20T07:29:59;53.70;23.50
63013;DHT22;62113;45.624;11.700;2023-08-20T07:32:25;53.90;22.50
63013;DHT22;62113;45.624;11.700;2023-08-20T07:34:51;54.10;21.80
63013;DHT22;62113;45.624;11.700;2023-08-20T07:37:16;54.30;19.90
63013;DHT22;62113;45.624;11.700;2023-08-20T07:39:42;54.70;20.70
63013;DHT22;62113;45.624;11.700;2023-08-20T07:42:07;54.80;20.20
63013;DHT22;62113;45.624;11.700;2023-08-20T07:44:33;55.10;20.50
63013;DHT22;62113;45.624;11.700;2023-08-20T07:46:58;55.20;18.90
63013;DHT22;62113;45.624;11.700;2023-08-20T07:49:24;55.40;20.40
63013;DHT22;62113;45.624;11.700;2023-08-20T07:51:49;55.60;19.10
63013;DHT22;62113;45.624;11.700;2023-08-20T07:54:17;55.90;18.60
63013;DHT22;62113;45.624;11.700;2023-08-20T07:56:43;56.10;19.00
63013;DHT22;62113;45.624;11.700;2023-08-20T07:59:08;56.30;18.50
63013;DHT22;62113;45.624;11.700;2023-08-20T08:01:34;56.50;19.80
63013;DHT22;62113;45.624;11.700;2023-08-20T08:03:59;56.70;19.50
63013;DHT22;62113;45.624;11.700;2023-08-20T08:06:25;56.90;18.80
63013;DHT22;62113;45.624;11.700;2023-08-20T08:08:50;56.90;18.40
63013;DHT22;62113;45.624;11.700;2023-08-20T08:11:16;57.10;19.10
63013;DHT22;62113;45.624;11.700;2023-08-20T08:13:41;57.20;18.80
63013;DHT22;62113;45.624;11.700;2023-08-20T08:16:07;57.30;18.90
63013;DHT22;62113;45.624;11.700;2023-08-20T08:18:32;57.60;18.30
63013;DHT22;62113;45.624;11.700;2023-08-20T08:20:58;57.70;17.70
63013;DHT22;62113;45.624;11.700;2023-08-20T08:23:23;57.80;17.60
63013;DHT22;62113;45.624;11.700;2023-08-20T08:25:49;57.90;18.50
63013;DHT22;62113;45.624;11.700;2023-08-20T08:28:15;57.80;18.40
63013;DHT22;62113;45.624;11.700;2023-08-20T08:30:40;57.70;17.60
63013;DHT22;62113;45.624;11.700;2023-08-20T08:33:06;57.80;18.00
63013;DHT22;62113;45.624;11.700;2023-08-20T08:35:31;57.60;18.40
63013;DHT22;62113;45.624;11.700;2023-08-20T08:37:57;57.40;17.80
63013;DHT22;62113;45.624;11.700;2023-08-20T08:40:23;57.10;18.40
63013;DHT22;62113;45.624;11.700;2023-08-20T08:42:53;56.30;18.10
63013;DHT22;62113;45.624;11.700;2023-08-20T08:45:19;54.40;19.50
63013;DHT22;62113;45.624;11.700;2023-08-20T08:47:45;52.30;20.90
63013;DHT22;62113;45.624;11.700;2023-08-20T08:50:11;50.10;22.50
63013;DHT22;62113;45.624;11.700;2023-08-20T08:52:37;48.20;24.50
63013;DHT22;62113;45.624;11.700;2023-08-20T08:55:03;46.60;25.40
63013;DHT22;62113;45.624;11.700;2023-08-20T08:57:29;45.50;27.30
63013;DHT22;62113;45.624;11.700;2023-08-20T08:59:55;44.40;27.90
63013;DHT22;62113;45.624;11.700;2023-08-20T09:02:21;43.40;28.70
63013;DHT22;62113;45.624;11.700;2023-08-20T09:04:48;42.60;30.00
63013;DHT22;62113;45.624;11.700;2023-08-20T09:07:14;41.90;32.20
63013;DHT22;62113;45.624;11.700;2023-08-20T09:09:43;41.20;31.80
63013;DHT22;62113;45.624;11.700;2023-08-20T09:12:13;40.90;32.30
63013;DHT22;62113;45.624;11.700;2023-08-20T09:14:39;40.60;32.70
63013;DHT22;62113;45.624;11.700;2023-08-20T09:17:04;40.40;34.80
63013;DHT22;62113;45.624;11.700;2023-08-20T09:19:34;40.20;35.30
63013;DHT22;62113;45.624;11.700;2023-08-20T09:22:00;40.10;34.90
63013;DHT22;62113;45.624;11.700;2023-08-20T09:24:26;40.10;35.30
63013;DHT22;62113;45.624;11.700;2023-08-20T09:26:57;39.90;35.30
63013;DHT22;62113;45.624;11.700;2023-08-20T09:29:24;39.50;36.20
63013;DHT22;62113;45.624;11.700;2023-08-20T09:31:50;39.20;36.90
63013;DHT22;62113;45.624;11.700;2023-08-20T09:34:25;38.80;36.40
63013;DHT22;62113;45.624;11.700;2023-08-20T09:36:51;38.50;36.90
63013;DHT22;62113;45.624;11.700;2023-08-20T09:39:17;38.30;37.00
63013;DHT22;62113;45.624;11.700;2023-08-20T09:41:42;38.20;36.70
63013;DHT22;62113;45.624;11.700;2023-08-20T09:44:09;38.20;37.70
63013;DHT22;62113;45.624;11.700;2023-08-20T09:46:35;38.20;38.20
63013;DHT22;62113;45.624;11.700;2023-08-20T09:49:00;38.20;37.30
63013;DHT22;62113;45.624;11.700;2023-08-20T09:51:27;38.20;37.30
63013;DHT22;62113;45.624;11.700;2023-08-20T09:56:25;38.20;37.60
63013;DHT22;62113;45.624;11.700;2023-08-20T09:58:52;38.20;37.50
63013;DHT22;62113;45.624;11.700;2023-08-20T10:01:19;38.20;37.10
63013;DHT22;62113;45.624;11.700;2023-08-20T10:03:44;38.00;37.30
63013;DHT22;62113;45.624;11.700;2023-08-20T10:06:10;37.90;37.60
63013;DHT22;62113;45.624;11.700;2023-08-20T10:08:36;37.80;36.80
63013;DHT22;62113;45.624;11.700;2023-08-20T10:11:02;37.70;36.50
63013;DHT22;62113;45.624;11.700;2023-08-20T10:13:27;37.70;36.80
63013;DHT22;62113;45.624;11.700;2023-08-20T10:15:53;37.70;36.70
63013;DHT22;62113;45.624;11.700;2023-08-20T10:18:20;37.70;37.40
63013;DHT22;62113;45.624;11.700;2023-08-20T10:20:49;37.50;37.10
63013;DHT22;62113;45.624;11.700;2023-08-20T10:23:15;37.50;37.50
63013;DHT22;62113;45.624;11.700;2023-08-20T10:25:41;37.60;37.40
63013;DHT22;62113;45.624;11.700;2023-08-20T10:28:12;37.60;37.10
63013;DHT22;62113;45.624;11.700;2023-08-20T10:30:39;37.50;38.10
63013;DHT22;62113;45.624;11.700;2023-08-20T10:33:24;37.50;38.10
63013;DHT22;62113;45.624;11.700;2023-08-20T10:35:50;37.40;38.00
63013;DHT22;62113;45.624;11.700;2023-08-20T10:38:16;37.30;37.40
63013;DHT22;62113;45.624;11.700;2023-08-20T10:48:36;37.50;36.90
63013;DHT22;62113;45.624;11.700;2023-08-20T10:53:33;37.60;36.40
63013;DHT22;62113;45.624;11.700;2023-08-20T10:56:11;37.70;36.80
63013;DHT22;62113;45.624;11.700;2023-08-20T10:58:44;37.60;37.00
63013;DHT22;62113;45.624;11.700;2023-08-20T11:01:13;37.60;36.50
63013;DHT22;62113;45.624;11.700;2023-08-20T11:03:39;37.50;36.70
63013;DHT22;62113;45.624;11.700;2023-08-20T11:06:04;37.50;36.80
63013;DHT22;62113;45.624;11.700;2023-08-20T11:08:31;37.50;37.10
63013;DHT22;62113;45.624;11.700;2023-08-20T11:10:56;37.40;36.70
63013;DHT22;62113;45.624;11.700;2023-08-20T11:13:22;37.40;37.40
63013;DHT22;62113;45.624;11.700;2023-08-20T11:15:48;37.20;38.00
63013;DHT22;62113;45.624;11.700;2023-08-20T11:18:14;36.90;38.30
63013;DHT22;62113;45.624;11.700;2023-08-20T11:20:40;36.70;39.00
63013;DHT22;62113;45.624;11.700;2023-08-20T11:23:07;36.70;38.90
63013;DHT22;62113;45.624;11.700;2023-08-20T11:25:32;36.60;40.20
63013;DHT22;62113;45.624;11.700;2023-08-20T11:27:58;36.60;40.10
63013;DHT22;62113;45.624;11.700;2023-08-20T11:30:24;36.50;39.90
63013;DHT22;62113;45.624;11.700;2023-08-20T11:32:54;36.40;39.90
63013;DHT22;62113;45.624;11.700;2023-08-20T11:35:20;36.20;40.00
63013;DHT22;62113;45.624;11.700;2023-08-20T11:37:46;36.30;40.20
63013;DHT22;62113;45.624;11.700;2023-08-20T11:40:11;36.20;40.10
63013;DHT22;62113;45.624;11.700;2023-08-20T11:42:37;36.20;40.20
63013;DHT22;62113;45.624;11.700;2023-08-20T11:45:02;36.30;40.00
63013;DHT22;62113;45.624;11.700;2023-08-20T11:47:28;36.40;40.10
63013;DHT22;62113;45.624;11.700;2023-08-20T11:50:04;36.30;39.60
63013;DHT22;62113;45.624;11.700;2023-08-20T11:52:33;36.30;40.80
63013;DHT22;62113;45.624;11.700;2023-08-20T11:54:59;36.20;40.90
63013;DHT22;62113;45.624;11.700;2023-08-20T11:57:25;36.20;40.40
63013;DHT22;62113;45.624;11.700;2023-08-20T11:59:51;36.30;40.00
63013;DHT22;62113;45.624;11.700;2023-08-20T12:02:24;36.30;40.20
63013;DHT22;62113;45.624;11.700;2023-08-20T12:04:50;36.40;40.20
63013;DHT22;62113;45.624;11.700;2023-08-20T12:07:16;36.40;39.90
63013;DHT22;62113;45.624;11.700;2023-08-20T12:09:41;36.30;39.80
63013;DHT22;62113;45.624;11.700;2023-08-20T12:12:07;36.40;39.90
63013;DHT22;62113;45.624;11.700;2023-08-20T12:14:33;36.50;39.80
63013;DHT22;62113;45.624;11.700;2023-08-20T12:16:58;36.60;39.70
63013;DHT22;62113;45.624;11.700;2023-08-20T12:19:24;36.70;39.60
63013;DHT22;62113;45.624;11.700;2023-08-20T12:21:50;36.80;39.60
63013;DHT22;62113;45.624;11.700;2023-08-20T12:24:15;36.90;39.40
63013;DHT22;62113;45.624;11.700;2023-08-20T12:26:41;36.90;39.20
63013;DHT22;62113;45.624;11.700;2023-08-20T12:29:07;36.70;39.20
63013;DHT22;62113;45.624;11.700;2023-08-20T12:31:33;36.60;39.40
63013;DHT22;62113;45.624;11.700;2023-08-20T12:33:59;36.60;40.40
63013;DHT22;62113;45.624;11.700;2023-08-20T12:36:24;36.60;39.80
63013;DHT22;62113;45.624;11.700;2023-08-20T12:38:50;36.70;39.70
63013;DHT22;62113;45.624;11.700;2023-08-20T12:41:15;36.70;39.60
63013;DHT22;62113;45.624;11.700;2023-08-20T12:43:41;36.80;39.30
63013;DHT22;62113;45.624;11.700;2023-08-20T12:46:07;36.80;38.70
63013;DHT22;62113;45.624;11.700;2023-08-20T12:48:32;36.80;39.00
63013;DHT22;62113;45.624;11.700;2023-08-20T12:50:58;36.80;39.50
63013;DHT22;62113;45.624;11.700;2023-08-20T12:53:24;36.60;40.00
63013;DHT22;62113;45.624;11.700;2023-08-20T12:55:49;36.60;39.80
63013;DHT22;62113;45.624;11.700;2023-08-20T12:58:14;36.60;39.70
63013;DHT22;62113;45.624;11.700;2023-08-20T13:00:40;36.60;40.10
63013;DHT22;62113;45.624;11.700;2023-08-20T13:03:06;36.50;40.30
63013;DHT22;62113;45.624;11.700;2023-08-20T13:05:31;36.40;39.80
63013;DHT22;62113;45.624;11.700;2023-08-20T13:07:57;36.30;40.00
63013;DHT22;62113;45.624;11.700;2023-08-20T13:10:23;36.20;41.10
63013;DHT22;62113;45.624;11.700;2023-08-20T13:12:50;36.20;39.60
63013;DHT22;62113;45.624;11.700;2023-08-20T13:15:17;36.20;39.90
63013;DHT22;62113;45.624;11.700;2023-08-20T13:17:43;36.30;40.30
63013;DHT22;62113;45.624;11.700;2023-08-20T13:20:08;36.30;39.90
63013;DHT22;62113;45.624;11.700;2023-08-20T13:22:35;36.30;39.90
63013;DHT22;62113;45.624;11.700;2023-08-20T13:25:00;36.40;39.80
63013;DHT22;62113;45.624;11.700;2023-08-20T13:27:26;36.50;39.90
63013;DHT22;62113;45.624;11.700;2023-08-20T13:29:51;36.60;39.80
63013;DHT22;62113;45.624;11.700;2023-08-20T13:32:17;36.70;39.90
63013;DHT22;62113;45.624;11.700;2023-08-20T13:34:42;36.70;39.90
63013;DHT22;62113;45.624;11.700;2023-08-20T13:37:08;36.70;39.90
63013;DHT22;62113;45.624;11.700;2023-08-20T13:39:33;36.70;39.70
63013;DHT22;62113;45.624;11.700;2023-08-20T13:41:59;36.70;39.70
63013;DHT22;62113;45.624;11.700;2023-08-20T13:44:24;36.70;41.10
63013;DHT22;62113;45.624;11.700;2023-08-20T13:46:50;36.70;40.30
63013;DHT22;62113;45.624;11.700;2023-08-20T13:49:15;36.60;40.70
63013;DHT22;62113;45.624;11.700;2023-08-20T13:51:41;36.60;40.40
63013;DHT22;62113;45.624;11.700;2023-08-20T13:54:06;36.60;40.50
63013;DHT22;62113;45.624;11.700;2023-08-20T13:56:32;36.60;41.60
63013;DHT22;62113;45.624;11.700;2023-08-20T13:58:58;36.60;40.40
63013;DHT22;62113;45.624;11.700;2023-08-20T14:01:23;36.50;40.40
63013;DHT22;62113;45.624;11.700;2023-08-20T14:03:49;36.40;40.50
63013;DHT22;62113;45.624;11.700;2023-08-20T14:06:15;36.40;40.40
63013;DHT22;62113;45.624;11.700;2023-08-20T14:08:42;36.40;39.00
63013;DHT22;62113;45.624;11.700;2023-08-20T14:11:07;36.30;39.40
63013;DHT22;62113;45.624;11.700;2023-08-20T14:13:33;36.30;39.70
63013;DHT22;62113;45.624;11.700;2023-08-20T14:15:58;36.30;39.60
63013;DHT22;62113;45.624;11.700;2023-08-20T14:18:25;36.20;39.30
63013;DHT22;62113;45.624;11.700;2023-08-20T14:20:51;36.20;39.40
63013;DHT22;62113;45.624;11.700;2023-08-20T14:23:16;36.20;38.60
63013;DHT22;62113;45.624;11.700;2023-08-20T14:25:42;36.20;38.70
63013;DHT22;62113;45.624;11.700;2023-08-20T14:28:07;36.20;38.70
63013;DHT22;62113;45.624;11.700;2023-08-20T14:30:37;36.20;39.80
63013;DHT22;62113;45.624;11.700;2023-08-20T14:33:03;36.20;40.50
63013;DHT22;62113;45.624;11.700;2023-08-20T14:35:29;36.10;40.40
63013;DHT22;62113;45.624;11.700;2023-08-20T14:37:55;36.10;40.30
63013;DHT22;62113;45.624;11.700;2023-08-20T14:40:20;36.00;40.30
63013;DHT22;62113;45.624;11.700;2023-08-20T14:42:46;36.00;40.30
63013;DHT22;62113;45.624;11.700;2023-08-20T14:45:11;35.80;39.10
63013;DHT22;62113;45.624;11.700;2023-08-20T14:47:37;35.70;39.40
63013;DHT22;62113;45.624;11.700;2023-08-20T14:50:03;35.70;39.70
63013;DHT22;62113;45.624;11.700;2023-08-20T14:52:28;35.60;39.60
63013;DHT22;62113;45.624;11.700;2023-08-20T14:54:54;35.50;39.70
63013;DHT22;62113;45.624;11.700;2023-08-20T14:57:19;35.50;40.00
63013;DHT22;62113;45.624;11.700;2023-08-20T14:59:45;35.50;39.20
63013;DHT22;62113;45.624;11.700;2023-08-20T15:02:10;35.60;39.70
63013;DHT22;62113;45.624;11.700;2023-08-20T15:04:36;35.50;40.10
63013;DHT22;62113;45.624;11.700;2023-08-20T15:07:01;35.50;39.90
63013;DHT22;62113;45.624;11.700;2023-08-20T15:09:27;35.60;40.00
63013;DHT22;62113;45.624;11.700;2023-08-20T15:11:52;35.70;40.40
63013;DHT22;62113;45.624;11.700;2023-08-20T15:14:18;35.70;39.70
63013;DHT22;62113;45.624;11.700;2023-08-20T15:16:45;35.70;40.20
63013;DHT22;62113;45.624;11.700;2023-08-20T15:19:10;35.70;40.00
63013;DHT22;62113;45.624;11.700;2023-08-20T15:21:36;35.70;40.10
63013;DHT22;62113;45.624;11.700;2023-08-20T15:24:01;35.70;40.10
63013;DHT22;62113;45.624;11.700;2023-08-20T15:26:29;35.70;39.60
63013;DHT22;62113;45.624;11.700;2023-08-20T15:28:54;35.70;39.70
63013;DHT22;62113;45.624;11.700;2023-08-20T15:31:20;35.70;39.70
63013;DHT22;62113;45.624;11.700;2023-08-20T15:33:45;35.70;39.60